createdAt,value
2023-07-09T00:00:51.154Z,14.95
2023-07-09T00:03:19.306Z,14.20
2023-07-09T00:05:49.387Z,14.50
2023-07-09T00:08:30.903Z,15.85
2023-07-09T00:10:57.904Z,15.20
2023-07-09T00:13:27.099Z,16.06
2023-07-09T00:15:59.108Z,16.76
2023-07-09T00:18:25.732Z,16.76
2023-07-09T00:20:52.337Z,17.70
2023-07-09T00:23:21.204Z,18.81
2023-07-09T00:25:48.738Z,19.88
2023-07-09T00:28:20.173Z,20.08
2023-07-09T00:30:47.602Z,19.94
2023-07-09T00:33:19.729Z,19.88
2023-07-09T00:35:49.794Z,19.98
2023-07-09T00:38:22.273Z,19.76
2023-07-09T00:41:01.711Z,19.61
2023-07-09T00:43:38.850Z,19.55
2023-07-09T00:46:18.703Z,19.99
2023-07-09T00:48:48.556Z,19.47
2023-07-09T00:51:18.604Z,18.06
2023-07-09T00:53:47.797Z,17.59
2023-07-09T00:56:17.957Z,18.05
2023-07-09T00:58:48.430Z,18.20
2023-07-09T01:01:19.363Z,18.84
2023-07-09T01:03:53.448Z,18.30
2023-07-09T01:06:33.499Z,19.45
2023-07-09T01:09:04.599Z,19.62
2023-07-09T01:11:32.435Z,20.40
2023-07-09T01:14:02.898Z,20.60
2023-07-09T01:16:38.347Z,20.24
2023-07-09T01:19:06.808Z,19.62
2023-07-09T01:21:33.468Z,19.81
2023-07-09T01:24:00.236Z,19.50
2023-07-09T01:26:28.756Z,19.56
2023-07-09T01:28:56.970Z,19.40
2023-07-09T01:31:24.467Z,19.65
2023-07-09T01:33:51.286Z,19.98
2023-07-09T01:36:24.306Z,20.83
2023-07-09T01:38:54.608Z,21.14
2023-07-09T01:41:21.497Z,20.91
2023-07-09T01:43:48.104Z,19.78
2023-07-09T01:46:15.354Z,19.96
2023-07-09T01:48:42.365Z,20.14
2023-07-09T01:51:11.932Z,19.54
2023-07-09T01:53:41.164Z,20.07
2023-07-09T01:56:08.699Z,19.53
2023-07-09T01:58:35.738Z,19.98
2023-07-09T02:01:02.941Z,19.28
2023-07-09T02:03:29.981Z,19.25
2023-07-09T02:05:58.873Z,19.42
2023-07-09T02:08:25.617Z,19.79
2023-07-09T02:10:52.514Z,20.23
2023-07-09T02:13:19.173Z,20.10
2023-07-09T02:15:45.787Z,19.73
2023-07-09T02:18:14.005Z,19.81
2023-07-09T02:20:40.631Z,19.79
2023-07-09T02:23:08.506Z,19.87
2023-07-09T02:25:35.711Z,19.14
2023-07-09T02:28:02.507Z,19.64
2023-07-09T02:30:29.114Z,19.53
2023-07-09T02:32:55.809Z,18.84
2023-07-09T02:35:23.626Z,18.95
2023-07-09T02:37:50.665Z,18.76
2023-07-09T02:40:17.540Z,18.85
2023-07-09T02:42:44.165Z,18.63
2023-07-09T02:45:11.412Z,18.74
2023-07-09T02:47:38.217Z,18.65
2023-07-09T02:50:05.801Z,18.94
2023-07-09T02:52:32.490Z,19.30
2023-07-09T02:54:59.139Z,19.23
2023-07-09T02:57:25.722Z,19.25
2023-07-09T02:59:52.347Z,19.89
2023-07-09T03:02:19.146Z,19.88
2023-07-09T03:04:45.878Z,19.15
2023-07-09T03:07:12.470Z,18.76
2023-07-09T03:09:39.095Z,18.28
2023-07-09T03:12:06.357Z,18.99
2023-07-09T03:14:33.764Z,18.22
2023-07-09T03:17:01.098Z,18.36
2023-07-09T03:19:27.860Z,18.90
2023-07-09T03:21:54.529Z,19.31
2023-07-09T03:24:21.157Z,18.84
2023-07-09T03:26:48.046Z,19.50
2023-07-09T03:29:14.708Z,19.01
2023-07-09T03:31:41.334Z,19.55
2023-07-09T03:34:08.094Z,19.93
2023-07-09T03:36:36.150Z,20.35
2023-07-09T03:39:03.656Z,19.72
2023-07-09T03:41:30.239Z,18.95
2023-07-09T03:43:57.003Z,19.53
2023-07-09T03:46:23.663Z,18.96
2023-07-09T03:48:51.571Z,18.74
2023-07-09T03:51:18.591Z,18.41
2023-07-09T03:53:45.571Z,18.12
2023-07-09T03:56:12.155Z,18.95
2023-07-09T03:58:38.805Z,19.56
2023-07-09T04:01:05.851Z,19.55
2023-07-09T04:03:32.912Z,18.98
2023-07-09T04:05:59.673Z,18.69
2023-07-09T04:08:26.703Z,18.66
2023-07-09T04:11:00.565Z,19.04
2023-07-09T04:13:29.012Z,18.36
2023-07-09T04:15:56.912Z,18.49
2023-07-09T04:18:24.007Z,17.96
2023-07-09T04:20:51.989Z,18.10
2023-07-09T04:23:19.610Z,18.43
2023-07-09T04:25:46.250Z,17.61
2023-07-09T04:28:13.314Z,17.81
2023-07-09T04:30:39.927Z,17.93
2023-07-09T04:33:06.874Z,18.21
2023-07-09T04:35:33.603Z,17.75
2023-07-09T04:38:00.182Z,18.11
2023-07-09T04:40:26.834Z,18.19
2023-07-09T04:42:53.493Z,17.73
2023-07-09T04:45:20.082Z,17.97
2023-07-09T04:47:46.699Z,17.65
2023-07-09T04:50:14.492Z,17.22
2023-07-09T04:52:41.245Z,17.66
2023-07-09T04:55:09.814Z,17.94
2023-07-09T04:57:36.738Z,18.49
2023-07-09T05:00:06.096Z,17.78
2023-07-09T05:02:34.076Z,17.90
2023-07-09T05:05:00.846Z,18.41
2023-07-09T05:07:28.222Z,18.61
2023-07-09T05:09:55.003Z,18.81
2023-07-09T05:12:21.920Z,18.53
2023-07-09T05:14:48.876Z,18.66
2023-07-09T05:17:15.506Z,19.66
2023-07-09T05:19:42.189Z,19.23
2023-07-09T05:22:08.820Z,19.15
2023-07-09T05:24:35.479Z,19.12
2023-07-09T05:27:02.135Z,19.23
2023-07-09T05:29:28.865Z,17.98
2023-07-09T05:31:55.510Z,18.35
2023-07-09T05:34:22.640Z,20.76
2023-07-09T05:36:49.550Z,22.10
2023-07-09T05:39:17.218Z,19.47
2023-07-09T05:41:44.069Z,22.45
2023-07-09T05:44:10.741Z,23.98
2023-07-09T05:46:38.704Z,23.46
2023-07-09T05:49:07.262Z,22.54
2023-07-09T05:51:34.610Z,23.96
2023-07-09T05:54:01.703Z,24.92
2023-07-09T05:56:28.331Z,25.29
2023-07-09T05:58:54.923Z,24.77
2023-07-09T06:01:21.684Z,25.42
2023-07-09T06:03:48.660Z,24.59
2023-07-09T06:06:15.728Z,25.53
2023-07-09T06:08:42.722Z,26.09
2023-07-09T06:11:09.840Z,26.57
2023-07-09T06:13:36.494Z,25.18
2023-07-09T06:16:03.604Z,24.62
2023-07-09T06:18:31.541Z,24.47
2023-07-09T06:21:01.515Z,24.95
2023-07-09T06:23:28.909Z,25.95
2023-07-09T06:25:55.545Z,26.45
2023-07-09T06:28:25.468Z,26.93
2023-07-09T06:30:52.541Z,26.81
2023-07-09T06:33:20.561Z,25.84
2023-07-09T06:36:05.999Z,26.33
2023-07-09T06:38:32.860Z,26.12
2023-07-09T06:41:00.063Z,27.35
2023-07-09T06:43:26.905Z,26.68
2023-07-09T06:45:57.130Z,26.65
2023-07-09T06:48:25.986Z,26.57
2023-07-09T06:50:54.504Z,27.59
2023-07-09T06:53:22.470Z,27.25
2023-07-09T06:55:50.113Z,27.59
2023-07-09T06:58:18.202Z,26.95
2023-07-09T07:00:44.876Z,27.34
2023-07-09T07:03:11.853Z,28.49
2023-07-09T07:05:38.540Z,27.72
2023-07-09T07:08:05.221Z,27.68
2023-07-09T07:10:31.836Z,27.39
2023-07-09T07:12:58.518Z,28.06
2023-07-09T07:15:25.241Z,28.05
2023-07-09T07:17:52.031Z,28.16
2023-07-09T07:20:20.161Z,27.92
2023-07-09T07:22:47.798Z,27.06
2023-07-09T07:25:14.532Z,27.01
2023-07-09T07:27:41.128Z,27.24
2023-07-09T07:30:11.349Z,26.40
2023-07-09T07:32:39.730Z,24.97
2023-07-09T07:35:07.088Z,24.65
2023-07-09T07:37:33.684Z,24.47
2023-07-09T07:40:00.338Z,23.09
2023-07-09T07:42:26.950Z,22.03
2023-07-09T07:44:53.602Z,20.99
2023-07-09T07:47:20.784Z,19.58
2023-07-09T07:49:47.440Z,19.32
2023-07-09T07:52:14.212Z,18.82
2023-07-09T07:54:40.860Z,19.07
2023-07-09T07:57:10.101Z,20.45
2023-07-09T07:59:37.909Z,22.54
2023-07-09T08:02:06.461Z,23.26
2023-07-09T08:04:33.154Z,22.63
2023-07-09T08:06:59.995Z,21.42
2023-07-09T08:09:26.575Z,19.66
2023-07-09T08:11:53.200Z,18.83
2023-07-09T08:14:19.937Z,19.65
2023-07-09T08:16:47.438Z,20.53
2023-07-09T08:19:14.284Z,20.36
2023-07-09T08:21:40.913Z,17.75
2023-07-09T08:24:07.775Z,16.85
2023-07-09T08:26:34.411Z,17.58
2023-07-09T08:29:01.008Z,17.17
2023-07-09T08:31:27.609Z,17.52
2023-07-09T08:33:54.262Z,16.82
2023-07-09T08:36:20.856Z,15.32
2023-07-09T08:38:47.495Z,15.05
2023-07-09T08:41:45.766Z,14.24
2023-07-09T08:44:18.150Z,14.43
2023-07-09T08:46:59.929Z,15.10
2023-07-09T08:49:55.849Z,14.27
2023-07-09T08:52:36.089Z,12.88
2023-07-09T08:55:11.221Z,13.09
2023-07-09T08:57:42.026Z,12.97
2023-07-09T09:00:17.913Z,12.84
2023-07-09T09:02:51.959Z,12.90
2023-07-09T09:05:21.254Z,12.42
2023-07-09T09:07:56.760Z,11.44
2023-07-09T09:10:33.253Z,11.13
2023-07-09T09:13:10.781Z,11.11
2023-07-09T09:15:41.027Z,11.24
2023-07-09T09:18:27.297Z,10.64
2023-07-09T09:21:02.419Z,11.00
2023-07-09T09:23:42.417Z,11.05
2023-07-09T09:26:32.983Z,10.82
2023-07-09T09:29:00.235Z,10.60
2023-07-09T09:31:30.769Z,10.31
2023-07-09T09:33:57.487Z,10.50
2023-07-09T09:36:26.638Z,10.02
2023-07-09T09:38:53.866Z,10.47
2023-07-09T09:41:26.635Z,10.57
2023-07-09T09:43:55.093Z,10.46
2023-07-09T09:46:28.154Z,10.72
2023-07-09T09:48:59.660Z,10.53
2023-07-09T09:51:27.208Z,10.66
2023-07-09T09:54:00.976Z,10.71
2023-07-09T09:56:35.881Z,10.81
2023-07-09T09:59:03.285Z,10.60
2023-07-09T10:01:32.381Z,10.02
2023-07-09T10:04:00.905Z,10.53
2023-07-09T10:06:40.700Z,9.60
2023-07-09T10:09:16.065Z,9.95
2023-07-09T10:12:15.096Z,9.90
2023-07-09T10:14:54.225Z,9.34
2023-07-09T10:17:41.207Z,8.96
2023-07-09T10:20:20.054Z,9.24
2023-07-09T10:23:00.489Z,9.13
2023-07-09T10:25:38.745Z,9.18
2023-07-09T10:28:26.622Z,9.10
2023-07-09T10:31:20.918Z,9.13
2023-07-09T10:33:47.443Z,9.33
2023-07-09T10:36:29.201Z,9.12
2023-07-09T10:39:08.687Z,8.92
2023-07-09T10:41:38.289Z,8.27
2023-07-09T10:44:15.731Z,8.34
2023-07-09T10:46:47.406Z,9.73
2023-07-09T10:49:17.155Z,13.48
2023-07-09T10:51:54.692Z,14.49
2023-07-09T10:54:34.688Z,14.51
2023-07-09T10:57:14.678Z,14.40
2023-07-09T10:59:43.139Z,14.13
2023-07-09T11:02:20.950Z,12.65
2023-07-09T11:05:06.304Z,15.08
2023-07-09T11:07:47.937Z,13.73
2023-07-09T11:10:30.757Z,13.81
2023-07-09T11:13:06.532Z,14.53
2023-07-09T11:15:37.860Z,14.76
2023-07-09T11:18:12.038Z,13.65
2023-07-09T11:20:44.825Z,15.17
2023-07-09T11:23:23.488Z,15.89
2023-07-09T11:26:03.261Z,16.19
2023-07-09T11:28:38.555Z,17.25
2023-07-09T11:31:17.579Z,16.47
2023-07-09T11:33:50.312Z,15.73
2023-07-09T11:36:27.153Z,15.58
2023-07-09T11:38:54.239Z,15.70
2023-07-09T11:41:40.316Z,17.05
2023-07-09T11:44:09.908Z,17.46
2023-07-09T11:46:45.820Z,17.22
2023-07-09T11:49:13.214Z,18.10
2023-07-09T11:51:50.694Z,17.41
2023-07-09T11:54:19.936Z,17.34
2023-07-09T11:57:01.652Z,17.09
2023-07-09T11:59:28.371Z,16.81
2023-07-09T12:01:56.417Z,17.07
2023-07-09T12:04:32.440Z,16.59
2023-07-09T12:07:01.911Z,16.36
2023-07-09T12:09:34.693Z,15.55
2023-07-09T12:12:01.289Z,13.12
2023-07-09T12:14:28.236Z,11.07
2023-07-09T12:16:55.789Z,10.58
2023-07-09T12:19:24.925Z,10.84
2023-07-09T12:21:58.373Z,10.74
2023-07-09T12:24:30.286Z,9.85
2023-07-09T12:26:59.996Z,9.91
2023-07-09T12:29:28.405Z,9.64
2023-07-09T12:31:58.123Z,9.71
2023-07-09T12:34:25.663Z,9.44
2023-07-09T12:36:54.848Z,9.32
2023-07-09T12:39:27.917Z,9.10
2023-07-09T12:42:01.450Z,9.22
2023-07-09T12:44:35.346Z,9.53
2023-07-09T12:47:02.163Z,9.57
2023-07-09T12:49:30.864Z,9.72
2023-07-09T12:51:59.261Z,9.88
2023-07-09T12:54:25.980Z,10.36
2023-07-09T12:56:54.948Z,9.88
2023-07-09T12:59:43.787Z,9.94
2023-07-09T13:02:19.964Z,10.35
2023-07-09T13:04:47.939Z,10.45
2023-07-09T13:07:26.469Z,10.49
2023-07-09T13:09:55.376Z,10.03
2023-07-09T13:12:29.632Z,10.10
2023-07-09T13:15:00.298Z,10.38
2023-07-09T13:17:32.372Z,10.96
2023-07-09T13:20:00.361Z,10.00
2023-07-09T13:22:29.918Z,9.06
2023-07-09T13:24:56.561Z,8.69
2023-07-09T13:27:24.455Z,8.44
2023-07-09T13:29:51.225Z,7.63
2023-07-09T13:32:17.801Z,8.42
2023-07-09T13:34:46.505Z,8.34
2023-07-09T13:37:16.258Z,8.59
2023-07-09T13:39:45.462Z,9.01
2023-07-09T13:42:15.367Z,9.43
2023-07-09T13:44:44.623Z,9.13
2023-07-09T13:47:17.753Z,9.23
2023-07-09T13:49:46.462Z,8.88
2023-07-09T13:52:19.506Z,8.88
2023-07-09T13:54:48.715Z,8.52
2023-07-09T13:57:19.026Z,8.97
2023-07-09T13:59:46.442Z,8.58
2023-07-09T14:02:24.157Z,8.62
2023-07-09T14:04:52.356Z,8.24
2023-07-09T14:07:32.699Z,7.69
2023-07-09T14:10:00.313Z,7.49
2023-07-09T14:12:28.577Z,6.69
2023-07-09T14:14:59.155Z,6.12
2023-07-09T14:17:26.695Z,5.94
2023-07-09T14:19:54.142Z,5.63
2023-07-09T14:22:29.735Z,5.35
2023-07-09T14:24:57.787Z,5.58
2023-07-09T14:27:24.523Z,5.56
2023-07-09T14:29:51.252Z,5.51
2023-07-09T14:32:37.633Z,5.09
2023-07-09T14:35:12.704Z,4.96
2023-07-09T14:37:39.359Z,5.05
2023-07-09T14:40:06.437Z,5.50
2023-07-09T14:42:33.416Z,5.63
2023-07-09T14:45:00.085Z,5.86
2023-07-09T14:47:29.081Z,5.81
2023-07-09T14:49:55.759Z,6.36
2023-07-09T14:52:23.160Z,6.03
2023-07-09T14:54:52.180Z,5.45
2023-07-09T14:57:24.005Z,5.46
2023-07-09T14:59:51.304Z,5.19
2023-07-09T15:02:36.678Z,4.83
2023-07-09T15:05:14.708Z,5.81
2023-07-09T15:07:41.327Z,5.45
2023-07-09T15:10:10.973Z,4.76
2023-07-09T15:12:37.715Z,4.60
2023-07-09T15:15:26.802Z,4.66
2023-07-09T15:17:54.704Z,4.82
2023-07-09T15:20:25.262Z,5.06
2023-07-09T15:22:53.044Z,4.78
2023-07-09T15:25:22.684Z,4.18
2023-07-09T15:27:49.755Z,4.19
2023-07-09T15:30:17.483Z,4.41
2023-07-09T15:32:45.516Z,4.68
2023-07-09T15:35:13.292Z,5.05
2023-07-09T15:37:40.224Z,5.38
2023-07-09T15:40:29.239Z,5.60
2023-07-09T15:43:04.295Z,5.90
2023-07-09T15:45:30.891Z,6.53
2023-07-09T15:47:57.678Z,6.53
2023-07-09T15:50:27.634Z,6.40
2023-07-09T15:52:55.379Z,7.40
2023-07-09T15:55:25.308Z,7.99
2023-07-09T15:57:54.535Z,7.96
2023-07-09T16:00:25.777Z,8.43
2023-07-09T16:03:01.783Z,8.75
2023-07-09T16:05:39.145Z,8.50
2023-07-09T16:08:05.855Z,9.91
2023-07-09T16:10:32.597Z,10.44
2023-07-09T16:12:59.306Z,10.82
2023-07-09T16:15:26.539Z,10.20
2023-07-09T16:17:53.562Z,9.76
2023-07-09T16:20:27.304Z,10.50
2023-07-09T16:22:59.001Z,9.78
2023-07-09T16:25:44.179Z,9.68
2023-07-09T16:28:16.121Z,9.09
2023-07-09T16:30:43.051Z,8.46
2023-07-09T16:33:09.874Z,7.96
2023-07-09T16:35:36.820Z,7.79
2023-07-09T16:38:03.438Z,7.59
2023-07-09T16:40:32.364Z,7.46
2023-07-09T16:43:02.635Z,6.94
2023-07-09T16:45:30.382Z,6.88
2023-07-09T16:47:57.556Z,6.82
2023-07-09T16:50:26.759Z,6.98
2023-07-09T16:52:54.999Z,6.74
2023-07-09T16:55:28.476Z,6.33
2023-07-09T16:57:57.669Z,6.06
2023-07-09T17:00:31.198Z,5.90
2023-07-09T17:02:59.083Z,5.96
2023-07-09T17:05:27.722Z,5.52
2023-07-09T17:07:55.018Z,5.77
2023-07-09T17:10:22.135Z,5.88
2023-07-09T17:12:57.095Z,5.71
2023-07-09T17:15:27.188Z,5.68
2023-07-09T17:17:55.510Z,5.83
2023-07-09T17:20:24.796Z,5.65
2023-07-09T17:22:53.581Z,5.23
2023-07-09T17:25:27.049Z,5.30
2023-07-09T17:27:53.965Z,5.36
2023-07-09T17:30:21.214Z,5.33
2023-07-09T17:32:48.861Z,5.39
2023-07-09T17:35:15.619Z,5.28
2023-07-09T17:37:48.949Z,5.85
2023-07-09T17:40:41.804Z,5.91
2023-07-09T17:43:25.057Z,5.47
2023-07-09T17:45:53.283Z,5.22
2023-07-09T17:48:30.419Z,4.86
2023-07-09T17:50:57.038Z,4.70
2023-07-09T17:53:27.692Z,4.57
2023-07-09T17:55:55.024Z,4.95
2023-07-09T17:58:29.380Z,4.58
2023-07-09T18:01:00.292Z,4.62
2023-07-09T18:03:27.165Z,5.00
2023-07-09T18:05:53.837Z,4.79
2023-07-09T18:08:20.495Z,4.80
2023-07-09T18:10:48.847Z,4.91
2023-07-09T18:13:19.118Z,5.34
2023-07-09T18:15:46.781Z,6.20
2023-07-09T18:18:14.534Z,6.58
2023-07-09T18:20:41.435Z,6.51
2023-07-09T18:23:08.101Z,6.84
2023-07-09T18:25:37.732Z,6.21
2023-07-09T18:28:06.733Z,5.94
2023-07-09T18:30:35.724Z,5.79
2023-07-09T18:33:06.107Z,5.67
2023-07-09T18:35:35.834Z,5.92
2023-07-09T18:38:05.306Z,6.19
2023-07-09T18:40:37.959Z,6.40
2023-07-09T18:43:20.289Z,6.42
2023-07-09T18:45:58.008Z,6.24
2023-07-09T18:48:25.480Z,6.97
2023-07-09T18:50:58.899Z,6.77
2023-07-09T18:53:28.369Z,7.20
2023-07-09T18:55:55.576Z,7.89
2023-07-09T18:58:26.893Z,7.79
2023-07-09T19:00:54.013Z,8.18
2023-07-09T19:03:24.809Z,8.13
2023-07-09T19:05:51.612Z,8.23
2023-07-09T19:08:24.701Z,8.47
2023-07-09T19:10:51.579Z,8.63
2023-07-09T19:13:19.095Z,8.54
2023-07-09T19:15:48.246Z,8.96
2023-07-09T19:18:32.828Z,9.16
2023-07-09T19:21:00.717Z,8.77
2023-07-09T19:23:28.519Z,9.48
2023-07-09T19:25:55.745Z,9.68
2023-07-09T19:28:23.435Z,8.91
2023-07-09T19:30:53.088Z,9.62
2023-07-09T19:33:23.528Z,9.64
2023-07-09T19:35:50.356Z,9.84
2023-07-09T19:38:16.929Z,9.49
2023-07-09T19:40:43.537Z,9.71
2023-07-09T19:43:12.963Z,9.89
2023-07-09T19:45:45.728Z,10.24
2023-07-09T19:48:20.221Z,10.50
2023-07-09T19:50:51.093Z,9.86
2023-07-09T19:53:28.930Z,10.04
2023-07-09T19:55:56.816Z,10.95
2023-07-09T19:58:24.522Z,10.66
2023-07-09T20:00:52.362Z,10.78
2023-07-09T20:03:31.724Z,10.86
2023-07-09T20:05:59.910Z,10.75
2023-07-09T20:08:26.988Z,10.59
2023-07-09T20:10:59.095Z,10.97
2023-07-09T20:13:35.406Z,11.53
2023-07-09T20:16:03.086Z,11.28
2023-07-09T20:18:30.280Z,11.36
2023-07-09T20:21:03.776Z,11.45
2023-07-09T20:23:31.256Z,11.19
2023-07-09T20:25:58.957Z,11.84
2023-07-09T20:28:28.132Z,11.92
2023-07-09T20:30:56.450Z,11.74
2023-07-09T20:33:25.020Z,11.41
2023-07-09T20:35:52.578Z,11.18
2023-07-09T20:38:22.199Z,11.61
2023-07-09T20:40:49.498Z,11.81
2023-07-09T20:43:27.959Z,11.12
2023-07-09T20:45:55.086Z,11.33
2023-07-09T20:48:22.700Z,11.78
2023-07-09T20:50:49.313Z,11.92
2023-07-09T20:53:18.831Z,12.27
2023-07-09T20:55:47.131Z,12.22
2023-07-09T20:58:19.147Z,11.93
2023-07-09T21:00:48.097Z,12.41
2023-07-09T21:03:18.684Z,11.87
2023-07-09T21:05:47.685Z,11.67
2023-07-09T21:08:17.289Z,11.77
2023-07-09T21:10:45.514Z,12.03
2023-07-09T21:13:15.713Z,12.01
2023-07-09T21:15:43.428Z,12.05
2023-07-09T21:18:17.099Z,12.50
2023-07-09T21:20:44.559Z,11.83
2023-07-09T21:23:23.662Z,11.13
2023-07-09T21:25:51.109Z,10.68
2023-07-09T21:28:17.681Z,10.27
2023-07-09T21:30:44.877Z,10.04
2023-07-09T21:33:17.773Z,9.90
2023-07-09T21:35:45.526Z,9.83
2023-07-09T21:38:20.963Z,9.42
2023-07-09T21:40:49.891Z,9.89
2023-07-09T21:43:16.864Z,9.71
2023-07-09T21:45:45.083Z,9.94
2023-07-09T21:48:19.156Z,10.15
2023-07-09T21:50:46.166Z,10.24
2023-07-09T21:53:23.508Z,10.12
2023-07-09T21:55:57.579Z,9.52
2023-07-09T21:58:24.191Z,9.77
2023-07-09T22:00:56.078Z,9.96
2023-07-09T22:03:23.512Z,9.72
2023-07-09T22:05:50.130Z,9.58
2023-07-09T22:08:19.644Z,9.23
2023-07-09T22:10:48.132Z,9.38
2023-07-09T22:13:19.288Z,9.24
2023-07-09T22:15:45.990Z,9.48
2023-07-09T22:18:16.723Z,9.26
2023-07-09T22:20:44.297Z,8.91
2023-07-09T22:23:18.345Z,8.88
2023-07-09T22:25:44.981Z,8.90
2023-07-09T22:28:15.204Z,9.30
2023-07-09T22:30:42.134Z,9.77
2023-07-09T22:33:08.798Z,9.56
2023-07-09T22:35:37.510Z,9.31
2023-07-09T22:38:16.587Z,9.32
2023-07-09T22:40:43.204Z,9.33
2023-07-09T22:43:10.000Z,9.31
2023-07-09T22:45:37.770Z,8.67
2023-07-09T22:48:06.342Z,8.92
2023-07-09T22:50:39.348Z,8.99
2023-07-09T22:53:17.698Z,8.76
2023-07-09T22:55:46.509Z,9.13
2023-07-09T22:58:15.351Z,9.10
2023-07-09T23:00:54.766Z,8.69
2023-07-09T23:03:26.292Z,8.85
2023-07-09T23:05:52.988Z,8.75
2023-07-09T23:08:21.117Z,8.41
2023-07-09T23:10:49.058Z,8.41
2023-07-09T23:13:16.033Z,8.03
2023-07-09T23:15:42.991Z,7.77
2023-07-09T23:18:17.385Z,7.90
2023-07-09T23:20:44.603Z,8.09
2023-07-09T23:23:11.738Z,7.83
2023-07-09T23:25:38.734Z,7.65
2023-07-09T23:28:06.131Z,7.09
2023-07-09T23:30:35.729Z,6.65
2023-07-09T23:33:25.394Z,6.27
2023-07-09T23:35:53.509Z,5.41
2023-07-09T23:38:20.364Z,4.88
2023-07-09T23:40:47.036Z,4.19
2023-07-09T23:43:15.836Z,3.87
2023-07-09T23:45:43.248Z,4.05
2023-07-09T23:48:22.995Z,3.58
2023-07-09T23:50:49.684Z,3.34
2023-07-09T23:53:24.951Z,3.45
2023-07-09T23:55:54.783Z,3.32
2023-07-09T23:58:26.551Z,3.19
